createdAt,value
2023-01-13T00:00:46.426Z,8.44
2023-01-13T00:03:12.978Z,8.39
2023-01-13T00:05:39.359Z,8.37
2023-01-13T00:08:06.296Z,8.34
2023-01-13T00:10:36.218Z,8.24
2023-01-13T00:13:05.117Z,8.16
2023-01-13T00:15:32.102Z,8.15
2023-01-13T00:17:58.765Z,8.07
2023-01-13T00:20:25.234Z,8.04
2023-01-13T00:22:51.611Z,8.04
2023-01-13T00:25:17.976Z,7.94
2023-01-13T00:27:44.422Z,7.91
2023-01-13T00:30:11.331Z,7.85
2023-01-13T00:32:38.108Z,7.79
2023-01-13T00:35:04.932Z,7.81
2023-01-13T00:37:31.364Z,7.79
2023-01-13T00:39:57.883Z,7.76
2023-01-13T00:42:42.668Z,7.74
2023-01-13T00:45:09.452Z,7.70
2023-01-13T00:47:35.914Z,7.66
2023-01-13T00:50:02.343Z,7.64
2023-01-13T00:52:28.746Z,7.66
2023-01-13T00:54:55.118Z,7.63
2023-01-13T00:57:21.512Z,7.62
2023-01-13T00:59:49.543Z,7.64
2023-01-13T01:02:16.253Z,7.62
2023-01-13T01:04:42.702Z,7.63
2023-01-13T01:07:09.094Z,7.71
2023-01-13T01:09:35.512Z,7.68
2023-01-13T01:12:01.964Z,7.73
2023-01-13T01:14:28.415Z,7.74
2023-01-13T01:16:54.836Z,7.74
2023-01-13T01:19:21.301Z,7.81
2023-01-13T01:21:47.669Z,7.79
2023-01-13T01:24:16.411Z,7.76
2023-01-13T01:26:42.808Z,7.77
2023-01-13T01:29:13.673Z,7.71
2023-01-13T01:31:40.125Z,7.80
2023-01-13T01:34:06.560Z,7.77
2023-01-13T01:36:34.807Z,7.74
2023-01-13T01:39:01.290Z,7.70
2023-01-13T01:41:30.317Z,7.75
2023-01-13T01:44:06.894Z,7.75
2023-01-13T01:46:42.742Z,7.72
2023-01-13T01:49:24.712Z,7.74
2023-01-13T01:52:07.795Z,7.75
2023-01-13T01:54:42.460Z,7.78
2023-01-13T01:57:13.891Z,7.81
2023-01-13T01:59:41.375Z,7.85
2023-01-13T02:02:08.675Z,7.90
2023-01-13T02:04:40.705Z,7.85
2023-01-13T02:07:07.355Z,7.78
2023-01-13T02:09:35.089Z,7.78
2023-01-13T02:12:20.127Z,7.76
2023-01-13T02:14:46.849Z,7.71
2023-01-13T02:17:26.013Z,7.67
2023-01-13T02:20:25.393Z,7.64
2023-01-13T02:23:29.744Z,7.68
2023-01-13T02:26:16.995Z,7.71
2023-01-13T02:29:29.435Z,7.65
2023-01-13T02:32:04.671Z,7.62
2023-01-13T02:34:41.816Z,7.68
2023-01-13T02:37:28.618Z,7.67
2023-01-13T02:40:02.737Z,7.67
2023-01-13T02:42:53.241Z,7.73
2023-01-13T02:45:26.751Z,7.78
2023-01-13T02:47:56.087Z,7.79
2023-01-13T02:50:28.996Z,7.78
2023-01-13T02:53:00.607Z,7.76
2023-01-13T02:55:33.933Z,7.79
2023-01-13T02:58:03.375Z,7.82
2023-01-13T03:00:30.927Z,7.86
2023-01-13T03:02:57.569Z,7.88
2023-01-13T03:05:25.143Z,7.84
2023-01-13T03:08:11.966Z,7.82
2023-01-13T03:10:56.539Z,7.79
2023-01-13T03:13:52.561Z,7.83
2023-01-13T03:16:38.323Z,7.83
2023-01-13T03:19:04.722Z,7.80
2023-01-13T03:21:31.088Z,7.76
2023-01-13T03:24:11.725Z,7.81
2023-01-13T03:27:12.371Z,7.76
2023-01-13T03:29:45.483Z,7.76
2023-01-13T03:32:52.821Z,7.75
2023-01-13T03:35:24.774Z,7.72
2023-01-13T03:38:00.299Z,7.74
2023-01-13T03:40:32.378Z,7.74
2023-01-13T03:43:24.228Z,7.71
2023-01-13T03:46:02.732Z,7.76
2023-01-13T03:48:32.568Z,7.79
2023-01-13T03:51:06.323Z,7.88
2023-01-13T03:53:40.012Z,7.88
2023-01-13T03:56:15.149Z,7.84
2023-01-13T03:58:45.660Z,7.79
2023-01-13T04:01:14.746Z,7.80
2023-01-13T04:03:53.988Z,7.73
2023-01-13T04:06:39.251Z,7.67
2023-01-13T04:09:15.431Z,7.64
2023-01-13T04:11:51.732Z,7.68
2023-01-13T04:14:21.139Z,7.68
2023-01-13T04:16:48.561Z,7.69
2023-01-13T04:19:15.019Z,7.63
2023-01-13T04:21:41.436Z,7.63
2023-01-13T04:24:08.887Z,7.56
2023-01-13T04:26:35.362Z,7.55
2023-01-13T04:29:01.852Z,7.58
2023-01-13T04:31:28.369Z,7.50
2023-01-13T04:33:54.810Z,7.50
2023-01-13T04:36:25.071Z,7.47
2023-01-13T04:38:51.563Z,7.45
2023-01-13T04:41:17.943Z,7.45
2023-01-13T04:43:44.316Z,7.46
2023-01-13T04:46:10.759Z,7.41
2023-01-13T04:48:37.213Z,7.37
2023-01-13T04:51:03.834Z,7.33
2023-01-13T04:53:30.279Z,7.27
2023-01-13T04:55:56.727Z,7.25
2023-01-13T04:58:23.200Z,7.25
2023-01-13T05:00:51.039Z,7.26
2023-01-13T05:03:18.574Z,7.28
2023-01-13T05:05:45.068Z,7.27
2023-01-13T05:08:11.450Z,7.25
2023-01-13T05:10:37.872Z,7.28
2023-01-13T05:13:23.050Z,7.34
2023-01-13T05:16:10.447Z,7.37
2023-01-13T05:18:37.677Z,7.35
2023-01-13T05:21:04.083Z,7.34
2023-01-13T05:23:49.137Z,7.37
2023-01-13T05:26:15.525Z,7.38
2023-01-13T05:28:41.947Z,7.34
2023-01-13T05:31:08.464Z,7.33
2023-01-13T05:33:36.022Z,7.33
2023-01-13T05:36:03.374Z,7.34
2023-01-13T05:38:29.836Z,7.31
2023-01-13T05:41:18.172Z,7.31
2023-01-13T05:43:44.778Z,7.27
2023-01-13T05:46:12.134Z,7.30
2023-01-13T05:48:40.670Z,7.28
2023-01-13T05:51:09.377Z,7.29
2023-01-13T05:53:36.217Z,7.28
2023-01-13T05:56:07.427Z,7.22
2023-01-13T05:58:34.272Z,7.22
2023-01-13T06:01:04.886Z,7.14
2023-01-13T06:03:31.474Z,7.16
2023-01-13T06:06:01.392Z,7.12
2023-01-13T06:08:28.166Z,7.08
2023-01-13T06:10:54.622Z,7.05
2023-01-13T06:13:21.213Z,7.04
2023-01-13T06:15:47.706Z,7.04
2023-01-13T06:18:14.129Z,7.02
2023-01-13T06:20:40.578Z,7.01
2023-01-13T06:23:10.603Z,7.02
2023-01-13T06:25:58.345Z,7.02
2023-01-13T06:28:24.887Z,7.03
2023-01-13T06:30:56.762Z,7.07
2023-01-13T06:33:30.054Z,7.13
2023-01-13T06:36:01.418Z,7.19
2023-01-13T06:38:30.144Z,7.18
2023-01-13T06:40:56.652Z,7.18
2023-01-13T06:43:23.148Z,7.19
2023-01-13T06:45:53.500Z,7.22
2023-01-13T06:48:32.782Z,7.28
2023-01-13T06:50:59.420Z,7.31
2023-01-13T06:53:25.949Z,7.31
2023-01-13T06:55:52.437Z,7.32
2023-01-13T06:58:18.855Z,7.32
2023-01-13T07:00:49.541Z,7.32
2023-01-13T07:03:16.782Z,7.36
2023-01-13T07:05:51.109Z,7.36
2023-01-13T07:08:17.743Z,7.37
2023-01-13T07:10:44.199Z,7.38
2023-01-13T07:13:29.339Z,7.36
2023-01-13T07:15:57.977Z,7.38
2023-01-13T07:18:27.255Z,7.40
2023-01-13T07:20:58.865Z,7.42
2023-01-13T07:23:27.585Z,7.43
2023-01-13T07:25:58.043Z,7.42
2023-01-13T07:28:25.983Z,7.43
2023-01-13T07:30:52.867Z,7.44
2023-01-13T07:33:19.726Z,7.46
2023-01-13T07:35:47.968Z,7.51
2023-01-13T07:38:15.362Z,7.50
2023-01-13T07:40:41.847Z,7.52
2023-01-13T07:43:30.727Z,7.52
2023-01-13T07:46:06.575Z,7.55
2023-01-13T07:48:34.392Z,7.59
2023-01-13T07:51:09.997Z,7.58
2023-01-13T07:53:36.690Z,7.58
2023-01-13T07:56:04.957Z,7.59
2023-01-13T07:58:33.271Z,7.59
2023-01-13T08:00:59.779Z,7.63
2023-01-13T08:03:27.251Z,7.63
2023-01-13T08:05:53.703Z,7.65
2023-01-13T08:08:20.208Z,7.66
2023-01-13T08:10:46.723Z,7.68
2023-01-13T08:13:22.393Z,7.73
2023-01-13T08:15:51.500Z,7.76
2023-01-13T08:18:21.205Z,7.79
2023-01-13T08:20:52.442Z,7.79
2023-01-13T08:23:23.054Z,7.80
2023-01-13T08:25:49.891Z,7.82
2023-01-13T08:28:17.487Z,7.82
2023-01-13T08:30:44.282Z,7.85
2023-01-13T08:33:12.681Z,7.87
2023-01-13T08:35:41.159Z,7.89
2023-01-13T08:38:08.921Z,7.88
2023-01-13T08:40:35.899Z,7.89
2023-01-13T08:43:03.023Z,7.86
2023-01-13T08:45:29.495Z,7.82
2023-01-13T08:47:55.876Z,7.78
2023-01-13T08:50:22.365Z,7.74
2023-01-13T08:52:48.810Z,7.71
2023-01-13T08:55:15.386Z,7.66
2023-01-13T08:57:41.788Z,7.63
2023-01-13T09:00:09.293Z,7.59
2023-01-13T09:02:35.821Z,7.56
2023-01-13T09:05:07.020Z,7.51
2023-01-13T09:07:35.630Z,7.48
2023-01-13T09:10:03.822Z,7.44
2023-01-13T09:12:48.979Z,7.42
2023-01-13T09:15:18.336Z,7.42
2023-01-13T09:17:45.326Z,7.39
2023-01-13T09:20:13.108Z,7.37
2023-01-13T09:22:40.617Z,7.36
2023-01-13T09:25:07.453Z,7.34
2023-01-13T09:27:33.936Z,7.33
2023-01-13T09:30:00.580Z,7.28
2023-01-13T09:32:27.021Z,7.25
2023-01-13T09:35:02.755Z,7.19
2023-01-13T09:37:31.808Z,7.18
2023-01-13T09:39:58.254Z,7.16
2023-01-13T09:43:17.212Z,7.14
2023-01-13T09:46:04.217Z,7.16
2023-01-13T09:48:51.705Z,7.18
2023-01-13T09:51:28.515Z,7.22
2023-01-13T09:54:02.942Z,7.25
2023-01-13T09:56:29.459Z,7.28
2023-01-13T09:58:55.893Z,7.31
2023-01-13T10:01:38.859Z,7.35
2023-01-13T10:04:11.156Z,7.36
2023-01-13T10:06:42.172Z,7.40
2023-01-13T10:09:18.428Z,7.43
2023-01-13T10:12:07.249Z,7.47
2023-01-13T10:14:51.606Z,7.53
2023-01-13T10:17:39.877Z,7.53
2023-01-13T10:20:22.346Z,7.51
2023-01-13T10:23:02.792Z,7.51
2023-01-13T10:26:04.372Z,7.53
2023-01-13T10:28:30.865Z,7.55
2023-01-13T10:30:58.558Z,7.60
2023-01-13T10:33:30.467Z,7.63
2023-01-13T10:36:02.634Z,7.70
2023-01-13T10:38:46.004Z,7.72
2023-01-13T10:41:15.428Z,7.74
2023-01-13T10:43:57.541Z,7.74
2023-01-13T10:46:24.194Z,7.72
2023-01-13T10:48:59.071Z,7.70
2023-01-13T10:51:44.176Z,7.68
2023-01-13T10:54:13.303Z,7.67
2023-01-13T10:56:42.393Z,7.67
2023-01-13T10:59:16.710Z,7.68
2023-01-13T11:01:59.634Z,7.70
2023-01-13T11:04:28.605Z,7.74
2023-01-13T11:06:56.007Z,7.78
2023-01-13T11:09:22.842Z,7.80
2023-01-13T11:11:55.496Z,7.83
2023-01-13T11:14:39.987Z,7.86
2023-01-13T11:17:25.853Z,7.89
2023-01-13T11:20:04.992Z,7.90
2023-01-13T11:22:40.497Z,7.94
2023-01-13T11:25:15.484Z,7.96
2023-01-13T11:27:55.661Z,7.98
2023-01-13T11:30:41.211Z,7.97
2023-01-13T11:33:17.192Z,8.01
2023-01-13T11:36:06.770Z,8.09
2023-01-13T11:38:50.444Z,8.16
2023-01-13T11:41:22.903Z,8.22
2023-01-13T11:44:06.238Z,8.25
2023-01-13T11:46:32.984Z,8.27
2023-01-13T11:48:59.932Z,8.27
2023-01-13T11:51:48.905Z,8.32
2023-01-13T11:54:42.992Z,8.36
2023-01-13T11:57:18.244Z,8.42
2023-01-13T11:59:58.678Z,8.44
2023-01-13T12:02:50.439Z,8.47
2023-01-13T12:05:29.262Z,8.49
2023-01-13T12:08:06.242Z,8.47
2023-01-13T12:10:33.575Z,8.47
2023-01-13T12:13:29.052Z,8.46
2023-01-13T12:16:11.347Z,8.48
2023-01-13T12:18:51.087Z,8.50
2023-01-13T12:21:22.927Z,8.50
2023-01-13T12:23:58.945Z,8.52
2023-01-13T12:26:25.783Z,8.52
2023-01-13T12:28:59.687Z,8.53
2023-01-13T12:31:27.830Z,8.51
2023-01-13T12:34:09.988Z,8.49
2023-01-13T12:36:45.196Z,8.51
2023-01-13T12:39:37.939Z,8.52
2023-01-13T12:42:53.636Z,8.55
2023-01-13T12:45:23.770Z,8.61
2023-01-13T12:47:50.382Z,8.61
2023-01-13T12:50:22.786Z,8.66
2023-01-13T12:52:50.873Z,8.69
2023-01-13T12:55:22.177Z,8.72
2023-01-13T12:58:02.511Z,8.75
2023-01-13T13:00:38.288Z,8.79
2023-01-13T13:03:09.246Z,8.82
2023-01-13T13:05:44.127Z,8.84
2023-01-13T13:08:25.455Z,8.86
2023-01-13T13:11:00.594Z,8.88
2023-01-13T13:13:56.189Z,8.89
2023-01-13T13:16:25.549Z,8.86
2023-01-13T13:19:22.900Z,8.83
2023-01-13T13:22:18.937Z,8.85
2023-01-13T13:24:51.506Z,8.88
2023-01-13T13:27:33.266Z,8.88
2023-01-13T13:30:03.621Z,8.88
2023-01-13T13:32:47.433Z,8.89
2023-01-13T13:35:27.676Z,8.90
2023-01-13T13:38:36.069Z,8.94
2023-01-13T13:41:53.552Z,8.99
2023-01-13T13:44:43.827Z,9.01
2023-01-13T13:47:10.837Z,9.02
2023-01-13T13:49:41.878Z,8.97
2023-01-13T13:52:11.569Z,8.99
2023-01-13T13:54:44.269Z,8.98
2023-01-13T13:57:23.241Z,8.97
2023-01-13T13:59:57.485Z,8.93
2023-01-13T14:02:29.465Z,8.91
2023-01-13T14:05:14.777Z,8.89
2023-01-13T14:07:47.695Z,8.91
2023-01-13T14:10:19.332Z,8.90
2023-01-13T14:12:45.904Z,8.90
2023-01-13T14:15:35.534Z,8.86
2023-01-13T14:18:04.898Z,8.86
2023-01-13T14:20:32.020Z,8.85
2023-01-13T14:23:01.552Z,8.82
2023-01-13T14:25:28.085Z,8.80
2023-01-13T14:27:57.265Z,8.77
2023-01-13T14:30:26.080Z,8.75
2023-01-13T14:32:53.576Z,8.76
2023-01-13T14:35:20.282Z,8.75
2023-01-13T14:37:48.996Z,8.74
2023-01-13T14:40:36.065Z,8.76
2023-01-13T14:43:09.334Z,8.76
2023-01-13T14:45:35.801Z,8.74
2023-01-13T14:48:08.294Z,8.74
2023-01-13T14:50:35.020Z,8.72
2023-01-13T14:53:01.955Z,8.73
2023-01-13T14:55:37.221Z,8.71
2023-01-13T14:58:22.103Z,8.72
2023-01-13T15:00:49.518Z,8.73
2023-01-13T15:03:18.029Z,8.70
2023-01-13T15:05:52.592Z,8.68
2023-01-13T15:08:27.763Z,8.72
2023-01-13T15:11:06.501Z,8.72
2023-01-13T15:13:49.708Z,8.66
2023-01-13T15:16:27.222Z,8.65
2023-01-13T15:18:55.257Z,8.64
2023-01-13T15:21:23.217Z,8.60
2023-01-13T15:23:49.904Z,8.57
2023-01-13T15:26:23.351Z,8.59
2023-01-13T15:28:51.478Z,8.57
2023-01-13T15:31:18.426Z,8.56
2023-01-13T15:33:44.921Z,8.54
2023-01-13T15:36:29.623Z,8.50
2023-01-13T15:38:57.037Z,8.48
2023-01-13T15:41:42.429Z,8.47
2023-01-13T15:44:31.640Z,8.42
2023-01-13T15:47:01.333Z,8.40
2023-01-13T15:49:35.135Z,8.38
2023-01-13T15:52:13.542Z,8.33
2023-01-13T15:54:39.960Z,8.30
2023-01-13T15:57:06.580Z,8.27
2023-01-13T15:59:33.861Z,8.23
2023-01-13T16:02:00.398Z,8.21
2023-01-13T16:04:26.859Z,8.25
2023-01-13T16:06:53.280Z,8.25
2023-01-13T16:09:19.679Z,8.22
2023-01-13T16:11:46.272Z,8.21
2023-01-13T16:14:12.725Z,8.20
2023-01-13T16:16:39.254Z,8.23
2023-01-13T16:19:05.699Z,8.23
2023-01-13T16:21:32.103Z,8.19
2023-01-13T16:23:58.502Z,8.21
2023-01-13T16:26:29.049Z,8.23
2023-01-13T16:28:57.332Z,8.27
2023-01-13T16:31:32.986Z,8.31
2023-01-13T16:34:01.694Z,8.28
2023-01-13T16:36:30.416Z,8.24
2023-01-13T16:38:57.223Z,8.21
2023-01-13T16:41:24.890Z,8.14
2023-01-13T16:43:52.204Z,8.09
2023-01-13T16:46:28.923Z,8.10
2023-01-13T16:49:01.131Z,8.06
2023-01-13T16:51:27.535Z,8.05
2023-01-13T16:53:53.979Z,8.06
2023-01-13T16:56:28.061Z,8.01
2023-01-13T16:58:57.222Z,7.93
2023-01-13T17:01:29.301Z,7.81
2023-01-13T17:03:56.726Z,7.70
2023-01-13T17:07:04.307Z,7.56
2023-01-13T17:09:30.924Z,7.46
2023-01-13T17:11:58.036Z,7.33
2023-01-13T17:14:25.253Z,7.24
2023-01-13T17:16:54.912Z,7.14
2023-01-13T17:19:22.563Z,7.05
2023-01-13T17:21:50.991Z,6.94
2023-01-13T17:24:17.492Z,6.90
2023-01-13T17:26:48.784Z,6.96
2023-01-13T17:29:18.432Z,6.94
2023-01-13T17:31:45.162Z,6.94
2023-01-13T17:34:12.571Z,6.93
2023-01-13T17:36:39.083Z,6.89
2023-01-13T17:39:05.792Z,6.84
2023-01-13T17:41:32.242Z,6.80
2023-01-13T17:43:58.697Z,6.79
2023-01-13T17:46:25.161Z,6.74
2023-01-13T17:48:53.534Z,6.71
2023-01-13T17:51:22.551Z,6.64
2023-01-13T17:53:49.317Z,6.54
2023-01-13T17:56:16.804Z,6.48
2023-01-13T17:58:45.268Z,6.50
2023-01-13T18:01:15.689Z,6.48
2023-01-13T18:03:42.416Z,6.44
2023-01-13T18:06:21.351Z,6.37
2023-01-13T18:08:48.440Z,6.26
2023-01-13T18:11:20.288Z,6.20
2023-01-13T18:13:55.013Z,6.18
2023-01-13T18:16:21.887Z,6.17
2023-01-13T18:18:50.947Z,6.17
2023-01-13T18:21:41.716Z,6.23
2023-01-13T18:24:32.077Z,6.25
2023-01-13T18:27:17.419Z,6.26
2023-01-13T18:29:43.955Z,6.28
2023-01-13T18:32:10.575Z,6.27
2023-01-13T18:34:37.997Z,6.33
2023-01-13T18:37:06.284Z,6.36
2023-01-13T18:39:32.873Z,6.33
2023-01-13T18:42:18.094Z,6.38
2023-01-13T18:44:44.573Z,6.44
2023-01-13T18:47:11.026Z,6.49
2023-01-13T18:49:37.416Z,6.61
2023-01-13T18:52:04.186Z,6.64
2023-01-13T18:54:30.683Z,6.64
2023-01-13T18:56:57.341Z,6.67
2023-01-13T18:59:24.924Z,6.74
2023-01-13T19:01:51.891Z,6.76
2023-01-13T19:04:18.742Z,6.80
2023-01-13T19:06:51.678Z,6.82
2023-01-13T19:09:20.436Z,6.83
2023-01-13T19:11:46.893Z,6.79
2023-01-13T19:14:33.899Z,6.81
2023-01-13T19:17:01.503Z,6.81
2023-01-13T19:19:28.196Z,6.80
2023-01-13T19:21:56.105Z,6.78
2023-01-13T19:24:22.855Z,6.78
2023-01-13T19:26:49.238Z,6.80
2023-01-13T19:29:15.644Z,6.82
2023-01-13T19:31:42.031Z,6.83
2023-01-13T19:34:08.508Z,6.86
2023-01-13T19:36:34.944Z,6.88
2023-01-13T19:39:01.388Z,6.88
2023-01-13T19:41:46.179Z,6.84
2023-01-13T19:44:31.118Z,6.78
2023-01-13T19:46:58.231Z,6.77
2023-01-13T19:49:24.669Z,6.75
2023-01-13T19:51:51.095Z,6.78
2023-01-13T19:54:17.523Z,6.86
2023-01-13T19:56:44.057Z,6.86
2023-01-13T19:59:12.603Z,6.87
2023-01-13T20:01:40.980Z,6.92
2023-01-13T20:04:14.141Z,6.91
2023-01-13T20:06:41.116Z,6.95
2023-01-13T20:09:07.776Z,6.98
2023-01-13T20:11:34.480Z,7.03
2023-01-13T20:14:01.617Z,7.09
2023-01-13T20:16:29.453Z,7.07
2023-01-13T20:18:56.467Z,7.06
2023-01-13T20:21:23.040Z,7.05
2023-01-13T20:23:50.987Z,7.04
2023-01-13T20:26:18.203Z,6.98
2023-01-13T20:28:45.788Z,6.99
2023-01-13T20:31:13.769Z,7.00
2023-01-13T20:33:40.767Z,7.05
2023-01-13T20:36:08.350Z,7.02
2023-01-13T20:38:38.007Z,7.03
2023-01-13T20:41:25.350Z,6.99
2023-01-13T20:43:54.821Z,6.97
2023-01-13T20:46:22.727Z,6.98
2023-01-13T20:48:49.192Z,7.05
2023-01-13T20:51:15.587Z,7.07
2023-01-13T20:53:42.092Z,7.09
2023-01-13T20:56:09.368Z,7.11
2023-01-13T20:58:39.019Z,7.12
2023-01-13T21:01:05.951Z,7.08
2023-01-13T21:03:32.688Z,7.01
2023-01-13T21:05:59.146Z,6.91
2023-01-13T21:08:25.652Z,6.92
2023-01-13T21:10:52.028Z,6.88
2023-01-13T21:13:37.031Z,6.83
2023-01-13T21:16:03.672Z,6.80
2023-01-13T21:18:48.875Z,6.79
2023-01-13T21:21:15.964Z,6.78
2023-01-13T21:23:44.345Z,6.77
2023-01-13T21:26:12.066Z,6.74
2023-01-13T21:28:38.598Z,6.73
2023-01-13T21:31:06.576Z,6.73
2023-01-13T21:33:33.631Z,6.74
2023-01-13T21:36:11.635Z,6.75
2023-01-13T21:38:38.801Z,6.81
2023-01-13T21:41:07.821Z,6.85
2023-01-13T21:43:54.443Z,6.81
2023-01-13T21:46:41.825Z,6.74
2023-01-13T21:49:08.656Z,6.73
2023-01-13T21:51:35.110Z,6.76
2023-01-13T21:54:01.518Z,6.80
2023-01-13T21:56:27.939Z,6.80
2023-01-13T21:58:57.066Z,6.78
2023-01-13T22:01:23.603Z,6.83
2023-01-13T22:04:08.438Z,6.82
2023-01-13T22:06:34.849Z,6.85
2023-01-13T22:09:01.396Z,6.84
2023-01-13T22:11:28.527Z,6.80
2023-01-13T22:14:08.703Z,6.80
2023-01-13T22:16:41.866Z,6.82
2023-01-13T22:19:10.262Z,6.82
2023-01-13T22:21:37.090Z,6.88
2023-01-13T22:24:03.669Z,6.93
2023-01-13T22:26:30.202Z,7.03
2023-01-13T22:28:56.785Z,7.05
2023-01-13T22:31:24.345Z,7.11
2023-01-13T22:33:59.868Z,7.14
2023-01-13T22:36:26.482Z,7.13
2023-01-13T22:38:56.583Z,7.08
2023-01-13T22:41:23.404Z,7.06
2023-01-13T22:43:49.850Z,7.05
2023-01-13T22:46:17.050Z,7.05
2023-01-13T22:48:44.215Z,7.07
2023-01-13T22:51:12.978Z,7.10
2023-01-13T22:53:40.346Z,7.09
2023-01-13T22:56:07.362Z,7.15
2023-01-13T22:58:33.759Z,7.11
2023-01-13T23:01:08.735Z,7.07
2023-01-13T23:03:35.241Z,7.04
2023-01-13T23:06:01.736Z,7.02
2023-01-13T23:08:28.230Z,6.97
2023-01-13T23:11:00.999Z,6.97
2023-01-13T23:13:27.608Z,6.98
2023-01-13T23:15:54.024Z,7.01
2023-01-13T23:18:20.740Z,7.00
2023-01-13T23:20:47.128Z,6.93
2023-01-13T23:23:13.560Z,6.93
2023-01-13T23:25:40.013Z,6.96
2023-01-13T23:28:08.774Z,6.96
2023-01-13T23:30:35.222Z,6.99
2023-01-13T23:33:01.625Z,6.97
2023-01-13T23:35:28.047Z,6.97
2023-01-13T23:37:54.431Z,6.97
2023-01-13T23:40:20.800Z,7.00
2023-01-13T23:42:47.228Z,6.99
2023-01-13T23:45:13.692Z,7.03
2023-01-13T23:47:41.075Z,7.10
2023-01-13T23:50:07.977Z,7.12
2023-01-13T23:52:34.365Z,7.12
2023-01-13T23:55:00.868Z,7.16
2023-01-13T23:57:27.325Z,7.18
2023-01-13T23:59:53.901Z,7.17
